Flight Track Log - Related Links

Times and Time Zones

All times are in EDT time to prevent confusion due to time zone crossing. See the DAL3860 flight status page for this flight to view local times or setup timezone preferences in your user account.

Time Position Orientation Groundspeed Altitude Reporting Facility
EDT Latitude Longitude Course Direction KTS MPH feet Rate Location/Type
Wed 09:19:22 AM 41.4214 -81.8375 252° West 165 190 2,000  Level Cleveland Center
Wed 09:20:29 AM 41.4839 -81.8581 346° North 211 243 4,300 1,723 Climbing Cleveland Center
Wed 09:21:03 AM 41.4894 -81.9053 279° West 237 273 4,900 1,700 Climbing Cleveland Center
Wed 09:21:29 AM 41.4767 -81.9383 243° Southwest 268 308 6,000 2,300 Climbing Cleveland Center
Wed 09:22:00 AM 41.3365 -82.3430 260° West  Level FlightAware Approximate
Wed 09:22:03 AM 41.4572 -82.0017 248° West 264 304 7,200  Level Cleveland Center
Wed 09:23:00 AM 41.3090 -82.4641 252° West  Level FlightAware Approximate
Wed 09:23:03 AM 41.4353 -82.0789 249° West 287 330 9,900  Level Cleveland Center
Wed 09:24:00 AM 41.2987 -82.5885 252° West  Level FlightAware Approximate
Wed 09:24:03 AM 41.4069 -82.1778 249° West 287 330 11,300  Level Cleveland Center
Wed 09:25:03 AM 41.3783 -82.2850 250° West 301 346 12,600 1,500 Climbing Cleveland Center
Wed 09:26:03 AM 41.3431 -82.3975 247° West 312 359 14,300 1,550 Climbing Cleveland Center
Wed 09:27:03 AM 41.3119 -82.5128 250° West 327 376 15,700 1,300 Climbing Cleveland Center
Wed 09:28:03 AM 41.3225 -82.6375 276° West 332 382 16,900 1,050 Climbing Cleveland Center
Wed 09:29:03 AM 41.3389 -82.7569 280° West 332 382 17,800 1,000 Climbing Cleveland Center
Wed 09:30:03 AM 41.3553 -82.8819 280° West 338 389 18,900 1,050 Climbing Cleveland Center
Wed 09:31:03 AM 41.3714 -83.0125 279° West 351 404 19,900 950 Climbing Cleveland Center
Wed 09:32:03 AM 41.3875 -83.1294 280° West 356 410 20,800 1,050 Climbing Cleveland Center
Wed 09:33:03 AM 41.4050 -83.2714 279° West 356 410 22,000 1,059 Climbing Cleveland Center
Wed 09:34:02 AM 41.4206 -83.4050 279° West 356 410 22,900 750 Climbing Cleveland Center
Wed 09:35:03 AM 41.4328 -83.5081 279° West 356 410 23,500 545 Climbing Cleveland Center
Wed 09:36:03 AM 41.4497 -83.6556 279° West 356 410 24,000 250 Climbing Cleveland Center
Wed 09:37:03 AM 41.4542 -83.7969 272° West 369 425 24,000  Level Cleveland Center
Wed 09:38:03 AM 41.4625 -83.9389 275° West 384 442 24,000 250 Level Cleveland Center
Wed 09:39:03 AM 41.4664 -84.0858 272° West 395 455 24,500 555 Climbing Cleveland Center
Wed 09:40:02 AM 41.4725 -84.2278 273° West 390 449 25,100 785 Climbing Cleveland Center
Wed 09:42:14 AM 41.4861 -84.5428 273° West 374 430 27,000 804 Climbing Chicago Center
Wed 09:43:16 AM 41.4911 -84.6792 273° West 370 426 27,700 677 Climbing Chicago Center
Wed 09:44:18 AM 41.4944 -84.8150 272° West 367 422 28,400 677 Climbing Chicago Center
Wed 09:45:20 AM 41.4978 -84.9511 272° West 367 422 29,100 634 Climbing Chicago Center
Wed 09:46:21 AM 41.5022 -85.0864 273° West 366 421 29,700 585 Climbing Chicago Center
Wed 09:47:23 AM 41.5050 -85.2217 272° West 364 419 30,300 629 Climbing Chicago Center
Wed 09:48:25 AM 41.5069 -85.3581 271° West 363 418 31,000 339 Climbing Chicago Center
Wed 09:49:27 AM 41.5122 -85.4986 273° West 368 423 31,000  Level Chicago Center
Wed 09:50:28 AM 41.5156 -85.6406 272° West 375 432 31,000  Level Chicago Center
Wed 09:51:30 AM 41.5197 -85.8128 272° West 384 442 31,000  Level Chicago Center
Wed 09:52:32 AM 41.5228 -85.9583 272° West 392 451 31,000  Level Chicago Center
Wed 09:53:34 AM 41.5725 -86.0897 297° West 416 479 31,000  Level Chicago Center
Wed 09:54:36 AM 41.6514 -86.2006 314° West 414 476 31,000  Level Chicago Center
Wed 09:55:38 AM 41.7328 -86.3114 315° West 415 478 31,000 48 Level Chicago Center
Wed 09:56:40 AM 41.8111 -86.4222 313° West 412 474 31,100 439 Climbing Chicago Center
Wed 09:57:41 AM 41.8878 -86.5325 313° West 407 468 31,900 439 Climbing Chicago Center
Wed 09:58:43 AM 41.9803 -86.6631 314° West 403 464 32,000 47 Climbing Chicago Center
Wed 09:59:48 AM 42.0611 -86.7669 316° Northwest 404 465 32,000  Level Chicago Center
Wed 10:00:49 AM 42.1386 -86.8775 313° West 408 470 32,000  Level Chicago Center
Wed 10:01:51 AM 42.2169 -86.9881 314° West 410 472 32,000  Level Chicago Center
Wed 10:02:53 AM 42.3100 -87.1192 314° West 406 467 32,000  Level Chicago Center
Wed 10:03:55 AM 42.3875 -87.2286 314° West 404 465 32,000  Level Chicago Center
Wed 10:04:56 AM 42.4650 -87.3381 314° West 405 466 32,000  Level Chicago Center
Wed 10:05:58 AM 42.5403 -87.4472 313° West 400 460 32,000 -629 Level Chicago Center
Wed 10:07:00 AM 42.6244 -87.5700 313° West 406 467 30,700 -968 Descending Chicago Center
Wed 10:08:02 AM 42.7031 -87.6817 314° West 408 470 30,000 -339 Descending Chicago Center
Wed 10:09:04 AM 42.7794 -87.7897 314° West 398 458 30,000  Level Chicago Center
Wed 10:10:05 AM 42.8556 -87.8992 314° West 398 458 30,000  Level Chicago Center
Wed 10:11:07 AM 42.9319 -88.0128 313° West 402 463 30,000  Level Chicago Center
Wed 10:12:09 AM 43.0231 -88.1464 313° West 411 473 30,000  Level Chicago Center
Wed 10:13:11 AM 43.1014 -88.2603 313° West 420 483 30,000  Level Chicago Center
Wed 10:14:12 AM 43.1750 -88.3825 310° West 421 484 30,000  Level Chicago Center
Wed 10:15:14 AM 43.2458 -88.5058 308° West 411 473 30,000  Level Chicago Center
Wed 10:16:16 AM 43.3183 -88.6294 309° West 409 471 30,000  Level Chicago Center
Wed 10:17:18 AM 43.3908 -88.7542 309° West 410 472 30,000  Level Chicago Center
Wed 10:18:19 AM 43.4631 -88.8794 308° West 412 474 30,000  Level Chicago Center
Wed 10:19:21 AM 43.5350 -89.0039 309° West 413 475 30,000  Level Chicago Center
Wed 10:20:23 AM 43.6072 -89.1275 309° West 413 475 30,000  Level Chicago Center
Wed 10:20:57 AM 43.6544 -89.2108 308° West 414 476 30,000  Level Minneapolis Center
Wed 10:21:58 AM 43.7244 -89.3364 308° West 412 474 30,000  Level Minneapolis Center
Wed 10:23:00 AM 43.7964 -89.4622 308° West 415 478 30,000  Level Minneapolis Center
Wed 10:24:02 AM 43.8664 -89.5878 308° West 413 475 30,000  Level Minneapolis Center
Wed 10:25:03 AM 43.9372 -89.7131 308° West 412 474 30,000  Level Minneapolis Center
Wed 10:26:05 AM 44.0167 -89.8633 306° West 412 474 30,000  Level Minneapolis Center
Wed 10:27:06 AM 44.0758 -89.9989 301° West 409 471 30,000  Level Minneapolis Center
Wed 10:28:08 AM 44.1350 -90.1333 302° West 408 470 30,000  Level Minneapolis Center
Wed 10:29:09 AM 44.1842 -90.2736 296° West 405 466 30,000  Level Minneapolis Center
Wed 10:30:11 AM 44.2333 -90.4147 296° West 404 465 30,000  Level Minneapolis Center
Wed 10:31:12 AM 44.2889 -90.5675 297° West 404 465 30,000  Level Minneapolis Center
Wed 10:32:14 AM 44.3325 -90.6931 296° West 398 458 30,000 -290 Level Minneapolis Center
Wed 10:33:16 AM 44.3803 -90.8347 295° West 403 464 29,400 -1,122 Descending Minneapolis Center
Wed 10:34:17 AM 44.4311 -90.9767 297° West 393 452 27,700 -1,610 Descending Minneapolis Center
Wed 10:35:19 AM 44.4775 -91.1083 296° West 383 441 26,100 -1,659 Descending Minneapolis Center
Wed 10:36:20 AM 44.5197 -91.2353 295° West 370 426 24,300 -1,951 Descending Minneapolis Center
Wed 10:37:22 AM 44.5703 -91.3872 295° West 364 419 22,100 -1,887 Descending Minneapolis Center
Wed 10:38:24 AM 44.6119 -91.5103 295° West 358 412 20,400 -1,659 Descending Minneapolis Center
Wed 10:39:25 AM 44.6522 -91.6325 295° West 353 406 18,700 -1,463 Descending Minneapolis Center
Wed 10:40:27 AM 44.6939 -91.7517 296° West 347 399 17,400 -1,623 Descending Minneapolis Center
Wed 10:41:27 AM 44.7489 -91.8792 301° West 336 387 15,400 -1,975 Descending FAA TRACON SMA TRACON (SMA)
Wed 10:41:46 AM 44.7586 -91.9158 290° West 333 383 14,800 -1,800 Descending FAA TRACON SMA TRACON (SMA)
Wed 10:42:07 AM 44.7744 -91.9608 296° West 331 381 14,200 -1,650 Descending FAA TRACON SMA TRACON (SMA)
Wed 10:42:26 AM 44.7844 -91.9961 292° West 327 376 13,700 -1,538 Descending FAA TRACON SMA TRACON (SMA)
Wed 10:42:46 AM 44.7983 -92.0314 299° West 328 377 13,200 -1,463 Descending FAA TRACON SMA TRACON (SMA)
Wed 10:43:07 AM 44.8075 -92.0672 290° West 322 371 12,700 -1,650 Descending FAA TRACON SMA TRACON (SMA)
Wed 10:43:26 AM 44.8217 -92.1117 294° West 323 372 12,100 -1,650 Descending FAA TRACON SMA TRACON (SMA)
Wed 10:43:47 AM 44.8347 -92.1467 298° West 325 374 11,600 -1,500 Descending FAA TRACON SMA TRACON (SMA)
Wed 10:44:06 AM 44.8433 -92.1822 289° West 323 372 11,100 -1,650 Descending FAA TRACON SMA TRACON (SMA)
Wed 10:44:27 AM 44.8586 -92.2264 296° West 322 371 10,500 -1,650 Descending FAA TRACON SMA TRACON (SMA)
Wed 10:44:46 AM 44.8714 -92.2625 297° West 329 379 10,000 -923 Descending FAA TRACON SMA TRACON (SMA)
Wed 10:45:06 AM 44.8811 -92.2992 291° West 328 377 9,900 -146 Descending FAA TRACON SMA TRACON (SMA)
Wed 10:45:27 AM 44.8825 -92.3478 272° West 328 377 9,900  Level FAA TRACON SMA TRACON (SMA)
Wed 10:45:46 AM 44.8775 -92.3853 259° West 323 372 9,900  Level FAA TRACON SMA TRACON (SMA)
Wed 10:46:07 AM 44.8658 -92.4325 251° West 326 375 9,900  Level FAA TRACON SMA TRACON (SMA)
Wed 10:46:26 AM 44.8594 -92.4703 257° West 323 372 9,900  Level FAA TRACON SMA TRACON (SMA)
Wed 10:46:46 AM 44.8525 -92.5075 255° West 323 372 9,900  Level FAA TRACON SMA TRACON (SMA)
Wed 10:47:07 AM 44.8453 -92.5447 255° West 320 368 9,900  Level FAA TRACON SMA TRACON (SMA)
Wed 10:47:26 AM 44.8364 -92.5917 255° West 320 368 9,900  Level FAA TRACON SMA TRACON (SMA)
Wed 10:47:47 AM 44.8289 -92.6286 254° West 319 367 9,900  Level FAA TRACON SMA TRACON (SMA)
Wed 10:48:07 AM 44.8219 -92.6653 255° West 317 365 9,900  Level FAA TRACON SMA TRACON (SMA)
Wed 10:48:26 AM 44.8128 -92.7111 254° West 317 365 9,900  Level FAA TRACON SMA TRACON (SMA)
Wed 10:48:47 AM 44.8056 -92.7483 255° West 318 366 9,900  Level FAA TRACON SMA TRACON (SMA)
Wed 10:49:06 AM 44.7983 -92.7847 254° West 317 365 9,900  Level FAA TRACON SMA TRACON (SMA)
Wed 10:49:26 AM 44.7892 -92.8303 254° West 316 364 9,900  Level FAA TRACON SMA TRACON (SMA)
Wed 10:49:47 AM 44.7819 -92.8675 255° West 318 366 9,900  Level FAA TRACON SMA TRACON (SMA)
Wed 10:50:06 AM 44.7753 -92.9044 256° West 319 367 9,900  Level FAA TRACON SMA TRACON (SMA)
Wed 10:50:27 AM 44.7750 -92.9525 270° West 320 368 9,900  Level FAA TRACON SMA TRACON (SMA)
Wed 10:50:46 AM 44.7786 -92.9914 277° West 323 372 9,900  Level FAA TRACON SMA TRACON (SMA)
Wed 10:51:07 AM 44.7825 -93.0275 279° West 312 359 9,900 -293 Level FAA TRACON SMA TRACON (SMA)
Wed 10:51:27 AM 44.7864 -93.0706 277° West 290 334 9,700 -1,077 Descending FAA TRACON SMA TRACON (SMA)
Wed 10:51:46 AM 44.7897 -93.1039 278° West 280 322 9,200 -1,350 Descending FAA TRACON SMA TRACON (SMA)
Wed 10:52:07 AM 44.7931 -93.1375 278° West 282 325 8,800 -1,500 Descending FAA TRACON SMA TRACON (SMA)
Wed 10:52:26 AM 44.7969 -93.1803 277° West 285 328 8,200 -1,350 Descending FAA TRACON SMA TRACON (SMA)
Wed 10:52:47 AM 44.8000 -93.2150 277° West 289 333 7,900 -439 Descending FAA TRACON SMA TRACON (SMA)
Wed 10:53:07 AM 44.8036 -93.2492 278° West 289 333 7,900 -154 Level FAA TRACON SMA TRACON (SMA)
Wed 10:53:26 AM 44.8075 -93.2836 279° West 289 333 7,800 -750 Descending FAA TRACON SMA TRACON (SMA)
Wed 10:53:47 AM 44.8133 -93.3250 281° West 283 326 7,400 -1,200 Descending FAA TRACON SMA TRACON (SMA)
Wed 10:54:06 AM 44.8225 -93.3558 293° West 279 321 7,000 -1,350 Descending FAA TRACON SMA TRACON (SMA)
Wed 10:54:27 AM 44.8317 -93.3872 292° West 279 321 6,500 -1,317 Descending FAA TRACON SMA TRACON (SMA)
Wed 10:54:47 AM 44.8442 -93.4253 295° West 279 321 6,100 -1,116 Descending FAA TRACON SMA TRACON (SMA)
Wed 10:55:10 AM 44.8558 -93.4533 300° West 274 315 5,700 -1,395 Descending FAA TRACON SMA TRACON (SMA)
Wed 10:55:30 AM 44.8714 -93.4883 302° West 272 313 5,100 -1,297 Descending FAA TRACON SMA TRACON (SMA)
Wed 10:55:47 AM 44.8836 -93.5142 304° West 265 305 4,900 -333 Descending FAA TRACON SMA TRACON (SMA)
Wed 10:56:06 AM 44.9019 -93.5256 336° Northwest 257 296 4,900  Level FAA TRACON SMA TRACON (SMA)
Wed 10:56:27 AM 44.9183 -93.5183 17° North 232 267 4,900  Level FAA TRACON SMA TRACON (SMA)
Wed 10:56:46 AM 44.9367 -93.5042 29° Northeast 194 223 4,900  Level FAA TRACON SMA TRACON (SMA)
Wed 10:57:07 AM 44.9431 -93.4844 65° Northeast 197 227 4,900  Level FAA TRACON SMA TRACON (SMA)
Wed 10:57:27 AM 44.9403 -93.4631 100° East 187 215 4,900 -615 Level FAA TRACON SMA TRACON (SMA)
Wed 10:57:46 AM 44.9372 -93.4414 101° East 182 209 4,500 -1,500 Descending FAA TRACON SMA TRACON (SMA)
Wed 10:58:07 AM 44.9356 -93.4144 95° East 180 207 3,900 -1,650 Descending FAA TRACON SMA TRACON (SMA)
Wed 10:58:26 AM 44.9347 -93.3922 93° East 184 212 3,400 -1,350 Descending FAA TRACON SMA TRACON (SMA)
Wed 10:58:47 AM 44.9331 -93.3642 95° East 185 213 3,000 -1,000 Descending FAA TRACON SMA TRACON (SMA)
Wed 10:59:26 AM 44.9256 -93.3256 105° East 168 193 2,400 -923 Descending FAA TRACON SMA TRACON (SMA)

Login

Don't have an account? Register now (free) for customized features, flight alerts, and more!